DUCK FRF 17M, NC - 433

GPS Positions

GPS Time
Latitude
Degrees
Longitude
Degrees
Gap
 
Distance
NM
Speed
Knots
Direction
Degrees
2022 Jan 16, 23:51 36.19965° -75.71492° 30 min 0.02 0.01
180°
2022 Jan 16, 23:21 36.19969° -75.71492° 30 min 0.02 0.02
2022 Jan 16, 22:51 36.19955° -75.71492° 30 min 0.02 0.01
327°
2022 Jan 16, 22:21 36.19948° -75.71486° 30 min 0.02 0.00
219°
2022 Jan 16, 21:51 36.19950° -75.71484° 30 min 0.02 0.01
337°
2022 Jan 16, 21:21 36.19941° -75.71479° 30 min 0.02 0.01
310°
2022 Jan 16, 20:51 36.19934° -75.71468° 30 min 0.02 0.01
99°
2022 Jan 16, 20:21 36.19935° -75.71474° 30 min 0.02 0.00
302°
2022 Jan 16, 19:51 36.19933° -75.71471° 30 min 0.02 0.01
292°
2022 Jan 16, 19:21 36.19931° -75.71464° 30 min 0.02 0.00
313°
2022 Jan 16, 18:51 36.19930° -75.71462° 30 min 0.02 0.00
270°
2022 Jan 16, 18:21 36.19930° -75.71460° 30 min 0.02 0.01
284°
2022 Jan 16, 17:51 36.19928° -75.71451° 30 min 0.03 0.01
109°
2022 Jan 16, 17:21 36.19930° -75.71458° 30 min 0.02 0.00
297°
2022 Jan 16, 16:51 36.19928° -75.71453° 30 min 0.03 0.01
78°
2022 Jan 16, 16:21 36.19926° -75.71460° 30 min 0.03 0.00
2022 Jan 16, 15:51 36.19926° -75.71460° 30 min 0.03 0.00
39°
2022 Jan 16, 15:21 36.19924° -75.71462° 30 min 0.03 0.00
152°
2022 Jan 16, 14:51 36.19926° -75.71464° 30 min 0.03 0.01
270°
2022 Jan 16, 14:21 36.19926° -75.71455° 30 min 0.03 0.00
58°
2022 Jan 16, 13:51 36.19925° -75.71458° 30 min 0.03 0.00
253°
2022 Jan 16, 13:21 36.19926° -75.71453° 30 min 0.03 0.00
2022 Jan 16, 12:51 36.19926° -75.71453° 30 min 0.03 0.00
90°
2022 Jan 16, 12:21 36.19926° -75.71458° 30 min 0.03 0.00
321°
2022 Jan 16, 11:51 36.19924° -75.71455° 30 min 0.03 0.00
282°
2022 Jan 16, 11:21 36.19923° -75.71451° 30 min 0.03 0.00
90°
2022 Jan 16, 10:51 36.19923° -75.71453° 30 min 0.03 0.00
180°
2022 Jan 16, 10:21 36.19924° -75.71453° 30 min 0.03 0.00
2022 Jan 16, 09:51 36.19924° -75.71453° 30 min 0.03 0.00
238°
2022 Jan 16, 09:21 36.19925° -75.71451° 30 min 0.03 0.00
2022 Jan 16, 08:51 36.19924° -75.71451° 30 min 0.03 0.00
180°
2022 Jan 16, 08:21 36.19925° -75.71451° 30 min 0.03 0.00
2022 Jan 16, 07:51 36.19924° -75.71451° 30 min 0.03 0.00
302°
2022 Jan 16, 07:21 36.19923° -75.71449° 30 min 0.03 0.01
90°
2022 Jan 16, 06:51 36.19923° -75.71455° 30 min 0.03 0.00
270°
2022 Jan 16, 06:21 36.19923° -75.71453° 30 min 0.03 0.00
224°
2022 Jan 16, 05:51 36.19925° -75.71451° 30 min 0.03 0.00
227°
2022 Jan 16, 05:21 36.19926° -75.71449° 30 min 0.03 0.01
282°
2022 Jan 16, 04:51 36.19925° -75.71442° 30 min 0.03 0.00
90°
2022 Jan 16, 04:21 36.19925° -75.71445° 30 min 0.03 0.00
2022 Jan 16, 03:51 36.19924° -75.71445° 30 min 0.03 0.00
180°
2022 Jan 16, 03:21 36.19925° -75.71445° 30 min 0.03 0.00
2022 Jan 16, 02:51 36.19925° -75.71445° 30 min 0.03 0.00
270°
2022 Jan 16, 02:21 36.19925° -75.71440° 30 min 0.03 0.00
2022 Jan 16, 01:51 36.19923° -75.71440° 30 min 0.03 0.00
90°
2022 Jan 16, 01:21 36.19923° -75.71445° 30 min 0.03 0.00
2022 Jan 16, 00:51 36.19923° -75.71445° 30 min 0.03 0.00
90°
2022 Jan 16, 00:21 36.19923° -75.71447° 30 min 0.03 0.01
251°
2022 Jan 15, 23:51 36.19925° -75.71440° 30 min 0.03 0.00
2022 Jan 15, 23:21 36.19925° -75.71440° 30 min 0.03 0.00
2022 Jan 15, 22:51 36.19924° -75.71440° 30 min 0.03 0.00
141°
2022 Jan 15, 22:21 36.19926° -75.71442° 30 min 0.03 0.00
2022 Jan 15, 21:51 36.19926° -75.71442° 30 min 0.03 0.00
2022 Jan 15, 21:21 36.19924° -75.71442° 30 min 0.03 0.00
90°
2022 Jan 15, 20:51 36.19924° -75.71445° 30 min 0.03 0.00
270°
2022 Jan 15, 20:21 36.19924° -75.71442° 30 min 0.03 0.00
238°
2022 Jan 15, 19:51 36.19925° -75.71440° 30 min 0.03 0.01
71°
2022 Jan 15, 19:21 36.19923° -75.71447° 30 min 0.03 0.00
270°
2022 Jan 15, 18:51 36.19923° -75.71445° 30 min 0.03 0.00
270°
2022 Jan 15, 18:21 36.19923° -75.71442° 30 min 0.03 0.00
180°
2022 Jan 15, 17:51 36.19925° -75.71442° 30 min 0.03 0.00
270°
2022 Jan 15, 17:21 36.19925° -75.71440° 30 min 0.03 0.00
58°
2022 Jan 15, 16:51 36.19924° -75.71442° 30 min 0.03 0.00
219°
2022 Jan 15, 16:21 36.19926° -75.71440° 30 min 0.03 0.00
58°
2022 Jan 15, 15:51 36.19925° -75.71442° 30 min 0.03 0.00
2022 Jan 15, 15:21 36.19923° -75.71442° 30 min 0.03 0.00
248°
2022 Jan 15, 14:51 36.19924° -75.71440° 30 min 0.03 0.00
90°
2022 Jan 15, 14:21 36.19924° -75.71445° 30 min 0.03 0.00
122°
2022 Jan 15, 13:51 36.19925° -75.71447° 30 min 0.03 0.00
58°
2022 Jan 15, 13:21 36.19924° -75.71449° 30 min 0.03 0.00
180°
2022 Jan 15, 12:51 36.19925° -75.71449° 30 min 0.03 0.00
2022 Jan 15, 12:21 36.19925° -75.71449° 30 min 0.03 0.00
47°
2022 Jan 15, 11:51 36.19924° -75.71451° 30 min 0.03 0.00
302°
2022 Jan 15, 11:21 36.19923° -75.71449° 30 min 0.03 0.00
180°
2022 Jan 15, 10:51 36.19925° -75.71449° 30 min 0.03 0.00
270°
2022 Jan 15, 10:21 36.19925° -75.71445° 30 min 0.03 0.00
58°
2022 Jan 15, 09:51 36.19924° -75.71447° 30 min 0.03 0.00
90°
2022 Jan 15, 09:21 36.19924° -75.71449° 30 min 0.03 0.00
270°
2022 Jan 15, 08:51 36.19924° -75.71447° 30 min 0.03 0.00
90°
2022 Jan 15, 08:21 36.19924° -75.71449° 30 min 0.03 0.00
219°
2022 Jan 15, 07:51 36.19926° -75.71447° 30 min 0.03 0.00
270°
2022 Jan 15, 07:21 36.19926° -75.71445° 30 min 0.03 0.00
90°
2022 Jan 15, 06:51 36.19926° -75.71447° 30 min 0.03 0.00
39°
2022 Jan 15, 06:21 36.19924° -75.71449° 30 min 0.03 0.00
238°
2022 Jan 15, 05:51 36.19925° -75.71447° 30 min 0.03 0.01
251°
2022 Jan 15, 05:21 36.19928° -75.71439° 30 min 0.03 0.00
47°
2022 Jan 15, 04:51 36.19926° -75.71440° 30 min 0.03 0.00
90°
2022 Jan 15, 04:21 36.19926° -75.71442° 30 min 0.03 0.00
238°
2022 Jan 15, 03:51 36.19928° -75.71440° 30 min 0.03 0.00
58°
2022 Jan 15, 03:21 36.19926° -75.71442° 30 min 0.03 0.00
2022 Jan 15, 02:51 36.19926° -75.71442° 30 min 0.03 0.00
290°
2022 Jan 15, 02:21 36.19925° -75.71439° 30 min 0.03 0.00
90°
2022 Jan 15, 01:51 36.19925° -75.71442° 30 min 0.03 0.00
180°
2022 Jan 15, 01:21 36.19926° -75.71442° 30 min 0.03 0.00
2022 Jan 15, 00:51 36.19925° -75.71442° 30 min 0.03 0.00
180°
2022 Jan 15, 00:21 36.19928° -75.71442° 30 min 0.03 0.00
321°
2022 Jan 14, 23:51 36.19925° -75.71440° 30 min 0.03 0.00
2022 Jan 14, 23:21 36.19925° -75.71440° 30 min 0.03 0.00
227°
2022 Jan 14, 22:51 36.19926° -75.71439° 30 min 0.03 0.00
90°
2022 Jan 14, 22:21 36.19926° -75.71440° 30 min 0.03 0.00
58°
2022 Jan 14, 21:51 36.19925° -75.71442° 30 min 0.03 0.00
58°
2022 Jan 14, 21:21 36.19924° -75.71445° 30 min 0.03 0.00
2022 Jan 14, 20:51 36.19924° -75.71445° 30 min 0.03 0.00
316°
2022 Jan 14, 20:21 36.19922° -75.71442° 30 min 0.03 0.00
90°
2022 Jan 14, 19:51 36.19922° -75.71447° 30 min 0.03 0.00
2022 Jan 14, 19:21 36.19922° -75.71447° 30 min 0.03 0.00
253°
2022 Jan 14, 18:51 36.19923° -75.71442° 30 min 0.03 0.00
180°
2022 Jan 14, 18:21 36.19924° -75.71442° 30 min 0.03 0.00
219°
2022 Jan 14, 17:51 36.19926° -75.71440° 30 min 0.03 0.00
2022 Jan 14, 17:21 36.19924° -75.71440° 30 min 0.03 0.00
90°
2022 Jan 14, 16:51 36.19924° -75.71442° 30 min 0.03 0.00
180°
2022 Jan 14, 16:21 36.19925° -75.71442° 30 min 0.03 0.00
270°
2022 Jan 14, 15:51 36.19925° -75.71440° 30 min 0.03 0.00
73°
2022 Jan 14, 15:21 36.19924° -75.71445° 30 min 0.03 0.00
180°
2022 Jan 14, 14:51 36.19926° -75.71445° 30 min 0.03 0.00
2022 Jan 14, 14:21 36.19926° -75.71445° 30 min 0.03 0.00
73°
2022 Jan 14, 13:51 36.19925° -75.71449° 30 min 0.03 0.00
110°
2022 Jan 14, 13:21 36.19926° -75.71453° 30 min 0.03 0.00
90°
2022 Jan 14, 12:51 36.19926° -75.71455° 30 min 0.03 0.00
270°
2022 Jan 14, 12:21 36.19926° -75.71453° 30 min 0.03 0.00
122°
2022 Jan 14, 11:51 36.19928° -75.71455° 30 min 0.03 0.00
270°
2022 Jan 14, 11:21 36.19928° -75.71451° 30 min 0.03 0.01
102°
2022 Jan 14, 10:51 36.19929° -75.71458° 30 min 0.02 0.00
180°
2022 Jan 14, 10:21 36.19930° -75.71458° 30 min 0.02 0.00
90°
2022 Jan 14, 09:51 36.19930° -75.71460° 30 min 0.02 0.01
270°
2022 Jan 14, 09:21 36.19930° -75.71453° 30 min 0.02 0.00
180°
2022 Jan 14, 08:51 36.19932° -75.71453° 30 min 0.02 0.00
302°
2022 Jan 14, 08:21 36.19931° -75.71451° 30 min 0.02 0.00
107°
2022 Jan 14, 07:51 36.19932° -75.71455° 30 min 0.02 0.01
260°
2022 Jan 14, 07:21 36.19933° -75.71447° 30 min 0.02 0.00
211°
2022 Jan 14, 06:51 36.19936° -75.71445° 30 min 0.02 0.00
180°
2022 Jan 14, 06:21 36.19937° -75.71445° 30 min 0.02 0.01
238°
2022 Jan 14, 05:51 36.19939° -75.71440° 30 min 0.02 0.00
149°
2022 Jan 14, 05:21 36.19942° -75.71442° 30 min 0.02 0.00
180°
2022 Jan 14, 04:51 36.19944° -75.71442° 30 min 0.02 0.00
149°
2022 Jan 14, 04:21 36.19947° -75.71445° 30 min 0.02 0.02
110°
2022 Jan 14, 03:51 36.19951° -75.71460° 30 min 0.01 0.00
122°
2022 Jan 14, 03:21 36.19953° -75.71464° 30 min 0.01 0.00
180°
2022 Jan 14, 02:51 36.19954° -75.71464° 30 min 0.01 0.01
270°
2022 Jan 14, 02:21 36.19954° -75.71458° 30 min 0.01 0.01
122°
2022 Jan 14, 01:51 36.19957° -75.71462° 30 min 0.01 0.01
180°
2022 Jan 14, 01:21 36.19967° -75.71462° 30 min 0.00 0.01
135°
2022 Jan 14, 00:51 36.19970° -75.71466° 30 min 0.00 0.01
180°
2022 Jan 14, 00:21 36.19975° -75.71466° 30 min 0.00 0.00
102°
2022 Jan 13, 23:51 36.19976° -75.71471° 30 min 0.01 0.00
219°
2022 Jan 13, 23:21 36.19978° -75.71468° 30 min 0.01 0.00
219°
2022 Jan 13, 22:51 36.19980° -75.71466° 30 min 0.01 0.00
102°
2022 Jan 13, 22:21 36.19981° -75.71471° 30 min 0.01 0.00
238°
2022 Jan 13, 21:51 36.19982° -75.71468° 30 min 0.01 0.00
141°
2022 Jan 13, 21:21 36.19984° -75.71471° 30 min 0.01 0.00
180°
2022 Jan 13, 20:51 36.19986° -75.71471° 30 min 0.01 0.00
180°
2022 Jan 13, 20:21 36.19987° -75.71471° 30 min 0.01 0.00
180°
2022 Jan 13, 19:51 36.19990° -75.71471° 30 min 0.01 0.00
127°
2022 Jan 13, 19:21 36.19992° -75.71474° 30 min 0.02 0.00
270°
2022 Jan 13, 18:51 36.19992° -75.71473° 30 min 0.01 0.00
248°
2022 Jan 13, 18:21 36.19993° -75.71471° 30 min 0.01 0.00
2022 Jan 13, 17:51 36.19993° -75.71471° 30 min 0.01 0.00
253°
2022 Jan 13, 17:21 36.19994° -75.71466° 30 min 0.01 0.00
2022 Jan 13, 16:51 36.19994° -75.71466° 30 min 0.01 0.00
238°
2022 Jan 13, 16:21 36.19995° -75.71464° 30 min 0.02 0.00
90°
2022 Jan 13, 15:51 36.19995° -75.71466° 30 min 0.02 0.00
2022 Jan 13, 15:21 36.19995° -75.71466° 30 min 0.02 0.00
238°
2022 Jan 13, 14:51 36.19996° -75.71464° 30 min 0.02 0.00
2022 Jan 13, 14:21 36.19996° -75.71464° 30 min 0.02 0.00
180°
2022 Jan 13, 13:51 36.19997° -75.71464° 30 min 0.02 0.00
238°
2022 Jan 13, 13:21 36.19998° -75.71462° 30 min 0.02 0.00
58°
2022 Jan 13, 12:51 36.19997° -75.71464° 30 min 0.02 0.00
2022 Jan 13, 12:21 36.19997° -75.71464° 30 min 0.02 0.00
2022 Jan 13, 11:51 36.19996° -75.71464° 30 min 0.02 0.00
2022 Jan 13, 11:21 36.19996° -75.71464° 30 min 0.02 0.00
180°
2022 Jan 13, 10:51 36.19998° -75.71464° 30 min 0.02 0.00
180°
2022 Jan 13, 10:21 36.19999° -75.71464° 30 min 0.02 0.00
2022 Jan 13, 09:51 36.19999° -75.71464° 30 min 0.02 0.00
180°
2022 Jan 13, 09:21 36.20000° -75.71464° 30 min 0.02 0.00
39°
2022 Jan 13, 08:51 36.19998° -75.71466° 30 min 0.02 0.00
68°
2022 Jan 13, 08:21 36.19997° -75.71468° 30 min 0.02 0.00
2022 Jan 13, 07:51 36.19997° -75.71468° 30 min 0.02 0.00
180°
2022 Jan 13, 07:21 36.19998° -75.71468° 30 min 0.02 0.00
90°
2022 Jan 13, 06:51 36.19998° -75.71471° 30 min 0.02 0.00
292°
2022 Jan 13, 06:21 36.19997° -75.71468° 30 min 0.02 0.00
2022 Jan 13, 05:51 36.19996° -75.71468° 30 min 0.02 0.00
180°
2022 Jan 13, 05:21 36.19997° -75.71468° 30 min 0.02 0.00
302°
2022 Jan 13, 04:51 36.19996° -75.71466° 30 min 0.02 0.00
270°
2022 Jan 13, 04:21 36.19996° -75.71464° 30 min 0.02 0.00
2022 Jan 13, 03:51 36.19996° -75.71464° 30 min 0.02 0.00
2022 Jan 13, 03:21 36.19994° -75.71464° 30 min 0.01 0.00
2022 Jan 13, 02:51 36.19992° -75.71464° 30 min 0.01 0.00
332°
2022 Jan 13, 02:21 36.19990° -75.71462° 30 min 0.01 0.00
90°
2022 Jan 13, 01:51 36.19990° -75.71464° 30 min 0.01 0.00
338°
2022 Jan 13, 01:21 36.19987° -75.71462° 30 min 0.01 0.00
90°
2022 Jan 13, 00:51 36.19987° -75.71464° 30 min 0.01 0.00
2022 Jan 13, 00:21 36.19987° -75.71464° 30 min 0.01 0.00
340°
2022 Jan 12, 23:51 36.19983° -75.71462° 30 min 0.01 0.00
253°
2022 Jan 12, 23:21 36.19984° -75.71458° 30 min 0.01 0.01
336°
2022 Jan 12, 22:51 36.19980° -75.71455° 30 min 0.01 0.01
270°
2022 Jan 12, 22:21 36.19980° -75.71447° 30 min 0.01 0.00
302°
2022 Jan 12, 21:51 36.19979° -75.71445° 30 min 0.01 0.01
341°
2022 Jan 12, 21:21 36.19968° -75.71440° 30 min 0.01 0.01
335°
2022 Jan 12, 20:51 36.19962° -75.71436° 30 min 0.01 0.01
319°
2022 Jan 12, 20:21 36.19958° -75.71432° 30 min 0.02 0.00
117°
2022 Jan 12, 19:51 36.19960° -75.71436° 30 min 0.01 0.01
24°
2022 Jan 12, 19:21 36.19955° -75.71439° 30 min 0.01 0.01
2022 Jan 12, 18:51 36.19950° -75.71439° 30 min 0.02 0.01
13°
2022 Jan 12, 18:21 36.19945° -75.71440° 30 min 0.02 0.00
39°
2022 Jan 12, 17:51 36.19942° -75.71442° 30 min 0.02 0.00
270°
2022 Jan 12, 17:21 36.19942° -75.71440° 30 min 0.02 0.01
53°
2022 Jan 12, 16:51 36.19938° -75.71447° 30 min 0.02 0.00
2022 Jan 12, 16:21 36.19937° -75.71447° 30 min 0.02 0.00
302°
2022 Jan 12, 15:51 36.19936° -75.71445° 30 min 0.02 0.00
2022 Jan 12, 15:21 36.19936° -75.71445° 30 min 0.02 0.00
302°
2022 Jan 12, 14:51 36.19935° -75.71442° 30 min 0.02 0.00
68°
2022 Jan 12, 14:21 36.19934° -75.71445° 30 min 0.02 0.00
302°
2022 Jan 12, 13:51 36.19933° -75.71442° 30 min 0.02 0.00
58°
2022 Jan 12, 13:21 36.19932° -75.71445° 30 min 0.02 0.00
302°
2022 Jan 12, 12:51 36.19931° -75.71442° 30 min 0.03 0.00
2022 Jan 12, 12:21 36.19929° -75.71442° 30 min 0.03 0.00
270°
2022 Jan 12, 11:51 36.19929° -75.71440° 30 min 0.03 0.00
90°
2022 Jan 12, 11:21 36.19929° -75.71442° 30 min 0.03 0.00
224°
2022 Jan 12, 10:51 36.19931° -75.71440° 30 min 0.03 0.00
313°
2022 Jan 12, 10:21 36.19930° -75.71439° 30 min 0.03 0.00
2022 Jan 12, 09:51 36.19930° -75.71439° 30 min 0.03 0.00
238°
2022 Jan 12, 09:21 36.19931° -75.71436° 30 min 0.03 0.00
90°
2022 Jan 12, 08:51 36.19931° -75.71439° 30 min 0.03 0.00
70°
2022 Jan 12, 08:21 36.19930° -75.71442° 30 min 0.03 0.00
2022 Jan 12, 07:51 36.19930° -75.71442° 30 min 0.03 0.00
63°
2022 Jan 12, 07:21 36.19928° -75.71447° 30 min 0.03 0.00
238°
2022 Jan 12, 06:51 36.19929° -75.71445° 30 min 0.03 0.01
204°
2022 Jan 12, 06:21 36.19933° -75.71442° 30 min 0.02 0.01
24°
2022 Jan 12, 05:51 36.19929° -75.71445° 30 min 0.03 0.00
180°
2022 Jan 12, 05:21 36.19930° -75.71445° 30 min 0.03 0.00
2022 Jan 12, 04:51 36.19929° -75.71445° 30 min 0.03 0.00
2022 Jan 12, 04:21 36.19928° -75.71445° 30 min 0.03 0.00
58°
2022 Jan 12, 03:51 36.19926° -75.71447° 30 min 0.03 0.00
90°
2022 Jan 12, 03:21 36.19926° -75.71449° 30 min 0.03 0.00
302°
2022 Jan 12, 02:51 36.19925° -75.71447° 30 min 0.03 0.00
2022 Jan 12, 02:21 36.19923° -75.71447° 30 min 0.03 0.00
248°
2022 Jan 12, 01:51 36.19924° -75.71445° 30 min 0.03 0.00
219°
2022 Jan 12, 01:21 36.19926° -75.71442° 30 min 0.03 0.00
90°
2022 Jan 12, 00:51 36.19926° -75.71445° 30 min 0.03 0.00
270°
2022 Jan 12, 00:21 36.19926° -75.71442° 30 min 0.03 0.00
180°
2022 Jan 11, 23:51 36.19928° -75.71442° 30 min 0.03 0.00
122°
2022 Jan 11, 23:21 36.19929° -75.71445° 30 min 0.03 0.00
224°
2022 Jan 11, 22:51 36.19931° -75.71442° 30 min 0.03 0.00
250°
2022 Jan 11, 22:21 36.19932° -75.71439° 30 min 0.03 0.00
28°
2022 Jan 11, 21:51 36.19930° -75.71440° 30 min 0.03 0.00
2022 Jan 11, 21:21 36.19930° -75.71440° 30 min 0.03 0.00
68°
2022 Jan 11, 20:51 36.19929° -75.71442° 30 min 0.03 0.00
256°
2022 Jan 11, 20:21 36.19930° -75.71439° 30 min 0.03 0.00
90°
2022 Jan 11, 19:51 36.19930° -75.71440° 30 min 0.03 0.01
71°
2022 Jan 11, 19:21 36.19928° -75.71447° 30 min 0.03 0.00
2022 Jan 11, 18:51 36.19926° -75.71447° 30 min 0.03 0.00
2022 Jan 11, 18:21 36.19926° -75.71447° 30 min 0.03 0.00
302°
2022 Jan 11, 17:51 36.19925° -75.71445° 30 min 0.03 0.01
122°
2022 Jan 11, 17:21 36.19928° -75.71449° 30 min 0.03 0.00
238°
2022 Jan 11, 16:51 36.19929° -75.71447° 30 min 0.03 0.00
39°
2022 Jan 11, 16:21 36.19926° -75.71449° 30 min 0.03 0.00
302°
2022 Jan 11, 15:51 36.19925° -75.71447° 30 min 0.03 0.00
122°
2022 Jan 11, 15:21 36.19926° -75.71449° 30 min 0.03 0.00
238°
2022 Jan 11, 14:51 36.19928° -75.71447° 30 min 0.03 0.00
39°
2022 Jan 11, 14:21 36.19925° -75.71449° 30 min 0.03 0.00
47°
2022 Jan 11, 13:51 36.19924° -75.71451° 30 min 0.03 0.00
270°
2022 Jan 11, 13:21 36.19924° -75.71449° 30 min 0.03 0.00
180°
2022 Jan 11, 12:51 36.19925° -75.71449° 30 min 0.03 0.00
180°
2022 Jan 11, 12:21 36.19926° -75.71449° 30 min 0.03 0.00
302°
2022 Jan 11, 11:51 36.19925° -75.71447° 30 min 0.03 0.00
238°
2022 Jan 11, 11:21 36.19926° -75.71445° 30 min 0.03 0.00
180°
2022 Jan 11, 10:51 36.19928° -75.71445° 30 min 0.03 0.00
238°
2022 Jan 11, 10:21 36.19929° -75.71442° 30 min 0.03 0.00
270°
2022 Jan 11, 09:51 36.19929° -75.71440° 30 min 0.03 0.01
210°
2022 Jan 11, 09:21 36.19934° -75.71436° 30 min 0.02 0.00
180°
2022 Jan 11, 08:51 36.19935° -75.71436° 30 min 0.02 0.00
2022 Jan 11, 08:21 36.19935° -75.71436° 30 min 0.02 0.00
180°
2022 Jan 11, 07:51 36.19937° -75.71436° 30 min 0.02 0.00
31°
2022 Jan 11, 07:21 36.19934° -75.71439° 30 min 0.02 0.00
211°
2022 Jan 11, 06:51 36.19937° -75.71436° 30 min 0.02 0.00
219°
2022 Jan 11, 06:21 36.19939° -75.71434° 30 min 0.02 0.00
224°
2022 Jan 11, 05:51 36.19941° -75.71432° 30 min 0.02 0.00
44°
2022 Jan 11, 05:21 36.19939° -75.71434° 30 min 0.02 0.00
122°
2022 Jan 11, 04:51 36.19941° -75.71436° 30 min 0.02 0.00
180°
2022 Jan 11, 04:21 36.19942° -75.71436° 30 min 0.02 0.00
2022 Jan 11, 03:51 36.19941° -75.71436° 30 min 0.02 0.00
141°
2022 Jan 11, 03:21 36.19944° -75.71439° 30 min 0.02 0.01
65°
2022 Jan 11, 02:51 36.19941° -75.71445° 30 min 0.02 0.00
107°
2022 Jan 11, 02:21 36.19942° -75.71449° 30 min 0.02 0.01
77°
2022 Jan 11, 01:51 36.19941° -75.71455° 30 min 0.02 0.00
78°
2022 Jan 11, 01:21 36.19941° -75.71460° 30 min 0.02 0.00
28°
2022 Jan 11, 00:51 36.19937° -75.71462° 30 min 0.02 0.00
28°
2022 Jan 11, 00:21 36.19935° -75.71464° 30 min 0.02 0.00
2022 Jan 10, 23:51 36.19932° -75.71464° 30 min 0.02 0.01
289°
2022 Jan 10, 23:21 36.19930° -75.71455° 30 min 0.02 0.00
180°
2022 Jan 10, 22:51 36.19931° -75.71455° 30 min 0.02 0.00
2022 Jan 10, 22:21 36.19929° -75.71455° 30 min 0.02 0.01
68°
2022 Jan 10, 21:51 36.19926° -75.71462° 30 min 0.03 0.00
90°
2022 Jan 10, 21:21 36.19926° -75.71464° 30 min 0.03 0.00
290°
2022 Jan 10, 20:51 36.19925° -75.71460° 30 min 0.03 0.01
284°
2022 Jan 10, 20:21 36.19923° -75.71451° 30 min 0.03 0.00
117°
2022 Jan 10, 19:51 36.19925° -75.71455° 30 min 0.03 0.01
270°
2022 Jan 10, 19:21 36.19925° -75.71449° 30 min 0.03 0.00
2022 Jan 10, 18:51 36.19925° -75.71449° 30 min 0.03 0.00
2022 Jan 10, 18:21 36.19925° -75.71449° 30 min 0.03 0.00
180°
2022 Jan 10, 17:51 36.19926° -75.71449° 30 min 0.03 0.01
253°
2022 Jan 10, 17:21 36.19929° -75.71440° 30 min 0.03 0.01
78°
2022 Jan 10, 16:51 36.19928° -75.71447° 30 min 0.03 0.00
2022 Jan 10, 16:21 36.19926° -75.71447° 30 min 0.03 0.00
180°
2022 Jan 10, 15:51 36.19928° -75.71447° 30 min 0.03 0.00
2022 Jan 10, 15:21 36.19926° -75.71447° 30 min 0.03 0.00
219°
2022 Jan 10, 14:51 36.19929° -75.71445° 30 min 0.03 0.00
73°
2022 Jan 10, 14:21 36.19928° -75.71449° 30 min 0.03 0.00
2022 Jan 10, 13:51 36.19928° -75.71449° 30 min 0.03 0.00
90°
2022 Jan 10, 13:21 36.19928° -75.71451° 30 min 0.03 0.00
117°
2022 Jan 10, 12:51 36.19930° -75.71455° 30 min 0.02 0.00
270°
2022 Jan 10, 12:21 36.19930° -75.71453° 30 min 0.02 0.00
90°
2022 Jan 10, 11:51 36.19930° -75.71458° 30 min 0.02 0.00
180°
2022 Jan 10, 11:21 36.19932° -75.71458° 30 min 0.02 0.01
90°
2022 Jan 10, 10:51 36.19932° -75.71464° 30 min 0.02 0.00
180°
2022 Jan 10, 10:21 36.19934° -75.71464° 30 min 0.02 0.00
256°
2022 Jan 10, 09:51 36.19935° -75.71460° 30 min 0.02 0.04
193°
2022 Jan 10, 09:21 36.19966° -75.71451° 30 min 0.00 0.02
180°
2022 Jan 10, 08:51 36.19981° -75.71451° 30 min 0.01 0.02
126°
2022 Jan 10, 08:21 36.19989° -75.71464° 30 min 0.01 0.00
180°
2022 Jan 10, 07:51 36.19992° -75.71464° 30 min 0.01 0.00
136°
2022 Jan 10, 07:21 36.19994° -75.71466° 30 min 0.01 0.00
180°
2022 Jan 10, 06:51 36.19997° -75.71466° 30 min 0.02 0.00
180°
2022 Jan 10, 06:21 36.19998° -75.71466° 30 min 0.02 0.00
219°
2022 Jan 10, 05:51 36.20000° -75.71464° 30 min 0.02 0.00
180°
2022 Jan 10, 05:21 36.20002° -75.71464° 30 min 0.02 0.00
180°
2022 Jan 10, 04:51 36.20003° -75.71464° 30 min 0.02 0.00
180°
2022 Jan 10, 04:21 36.20004° -75.71464° 30 min 0.02 0.00
2022 Jan 10, 03:51 36.20004° -75.71464° 30 min 0.02 0.00
2022 Jan 10, 03:21 36.20003° -75.71464° 30 min 0.02 0.00
180°
2022 Jan 10, 02:51 36.20004° -75.71464° 30 min 0.02 0.00
2022 Jan 10, 02:21 36.20004° -75.71464° 30 min 0.02 0.00
250°
2022 Jan 10, 01:51 36.20005° -75.71460° 30 min 0.02 0.00
90°
2022 Jan 10, 01:21 36.20005° -75.71462° 30 min 0.02 0.00
133°
2022 Jan 10, 00:51 36.20006° -75.71464° 30 min 0.02 0.00
2022 Jan 10, 00:21 36.20005° -75.71464° 30 min 0.02 0.01
315°
2022 Jan 09, 23:51 36.20002° -75.71460° 30 min 0.02 0.00
180°
2022 Jan 09, 23:21 36.20004° -75.71460° 30 min 0.02 0.00
292°
2022 Jan 09, 22:51 36.20003° -75.71458° 30 min 0.02 0.00
2022 Jan 09, 22:21 36.20003° -75.71458° 30 min 0.02 0.01
302°
2022 Jan 09, 21:51 36.20000° -75.71453° 30 min 0.02 0.00
90°
2022 Jan 09, 21:21 36.20000° -75.71455° 30 min 0.02 0.00
270°
2022 Jan 09, 20:51 36.20000° -75.71453° 30 min 0.02 0.01
122°
2022 Jan 09, 20:21 36.20003° -75.71458° 30 min 0.02 0.01
313°
2022 Jan 09, 19:51 36.19999° -75.71453° 30 min 0.02 0.00
58°
2022 Jan 09, 19:21 36.19998° -75.71455° 30 min 0.02 0.00
270°
2022 Jan 09, 18:51 36.19998° -75.71453° 30 min 0.02 0.00
68°
2022 Jan 09, 18:21 36.19997° -75.71455° 30 min 0.02 0.00
180°
2022 Jan 09, 17:51 36.19999° -75.71455° 30 min 0.02 0.00
2022 Jan 09, 17:21 36.19998° -75.71455° 30 min 0.02 0.01
50°
2022 Jan 09, 16:51 36.19995° -75.71460° 30 min 0.02 0.01
45°
2022 Jan 09, 16:21 36.19992° -75.71464° 30 min 0.01 0.01
68°
2022 Jan 09, 15:51 36.19990° -75.71471° 30 min 0.01 0.00
58°
2022 Jan 09, 15:21 36.19989° -75.71473° 30 min 0.01 0.00
270°
2022 Jan 09, 14:51 36.19989° -75.71471° 30 min 0.01 0.00
238°
2022 Jan 09, 14:21 36.19990° -75.71468° 30 min 0.01 0.01
302°
2022 Jan 09, 13:51 36.19987° -75.71464° 30 min 0.01 0.01
302°
2022 Jan 09, 13:21 36.19984° -75.71458° 30 min 0.01 0.01
19°
2022 Jan 09, 12:51 36.19979° -75.71460° 30 min 0.01 0.02
341°
2022 Jan 09, 12:21 36.19963° -75.71453° 30 min 0.01 0.01
335°
2022 Jan 09, 11:51 36.19957° -75.71449° 30 min 0.01 0.02
353°
2022 Jan 09, 11:21 36.19941° -75.71447° 30 min 0.02 0.00
329°
2022 Jan 09, 10:51 36.19938° -75.71445° 30 min 0.02 0.00
332°
2022 Jan 09, 10:21 36.19935° -75.71442° 30 min 0.02 0.00
292°
2022 Jan 09, 09:51 36.19934° -75.71440° 30 min 0.02 0.00
270°
2022 Jan 09, 09:21 36.19934° -75.71439° 30 min 0.02 0.00
2022 Jan 09, 08:51 36.19934° -75.71439° 30 min 0.02 0.00
70°
2022 Jan 09, 08:21 36.19933° -75.71442° 30 min 0.02 0.01
47°
2022 Jan 09, 07:51 36.19930° -75.71447° 30 min 0.03 0.00
2022 Jan 09, 07:21 36.19930° -75.71447° 30 min 0.03 0.00
270°
2022 Jan 09, 06:51 36.19930° -75.71445° 30 min 0.03 0.00
180°
2022 Jan 09, 06:21 36.19931° -75.71445° 30 min 0.02 0.00
2022 Jan 09, 05:51 36.19930° -75.71445° 30 min 0.03 0.00
2022 Jan 09, 05:21 36.19930° -75.71445° 30 min 0.03 0.00
2022 Jan 09, 04:51 36.19929° -75.71445° 30 min 0.03 0.00
180°
2022 Jan 09, 04:21 36.19930° -75.71445° 30 min 0.03 0.00
68°
2022 Jan 09, 03:51 36.19929° -75.71447° 30 min 0.03 0.00
180°
2022 Jan 09, 03:21 36.19930° -75.71447° 30 min 0.03 0.00
297°
2022 Jan 09, 02:51 36.19928° -75.71442° 30 min 0.03 0.00
180°
2022 Jan 09, 02:21 36.19929° -75.71442° 30 min 0.03 0.00
90°
2022 Jan 09, 01:51 36.19929° -75.71445° 30 min 0.03 0.00
270°
2022 Jan 09, 01:21 36.19929° -75.71440° 30 min 0.03 0.00
213°
2022 Jan 09, 00:51 36.19931° -75.71439° 30 min 0.03 0.00
47°
2022 Jan 09, 00:21 36.19930° -75.71440° 30 min 0.03 0.00
2022 Jan 08, 23:51 36.19928° -75.71440° 30 min 0.03 0.00
58°
2022 Jan 08, 23:21 36.19926° -75.71442° 30 min 0.03 0.00
2022 Jan 08, 22:51 36.19926° -75.71442° 30 min 0.03 0.00
2022 Jan 08, 22:21 36.19926° -75.71442° 30 min 0.03 0.00
2022 Jan 08, 21:51 36.19925° -75.71442° 30 min 0.03 0.00
2022 Jan 08, 21:21 36.19925° -75.71442° 30 min 0.03 0.00
238°
2022 Jan 08, 20:51 36.19926° -75.71440° 30 min 0.03 0.00
58°
2022 Jan 08, 20:21 36.19925° -75.71442° 30 min 0.03 0.00
44°
2022 Jan 08, 19:51 36.19923° -75.71445° 30 min 0.03 0.00
58°
2022 Jan 08, 19:21 36.19922° -75.71447° 30 min 0.03 0.00
238°
2022 Jan 08, 18:51 36.19923° -75.71445° 30 min 0.03 0.00
2022 Jan 08, 18:21 36.19923° -75.71445° 30 min 0.03 0.01
249°
2022 Jan 08, 17:51 36.19925° -75.71439° 30 min 0.03 0.00
133°
2022 Jan 08, 17:21 36.19926° -75.71440° 30 min 0.03 0.00
2022 Jan 08, 16:51 36.19925° -75.71440° 30 min 0.03 0.00
250°
2022 Jan 08, 16:21 36.19926° -75.71436° 30 min 0.03 0.00
2022 Jan 08, 15:51 36.19926° -75.71436° 30 min 0.03 0.00
180°
2022 Jan 08, 15:21 36.19928° -75.71436° 30 min 0.03 0.00
2022 Jan 08, 14:51 36.19925° -75.71436° 30 min 0.03 0.00
180°
2022 Jan 08, 14:21 36.19926° -75.71436° 30 min 0.03 0.00
180°
2022 Jan 08, 13:51 36.19928° -75.71436° 30 min 0.03 0.00
2022 Jan 08, 13:21 36.19926° -75.71436° 30 min 0.03 0.00
58°
2022 Jan 08, 12:51 36.19925° -75.71439° 30 min 0.03 0.00
238°
2022 Jan 08, 12:21 36.19926° -75.71436° 30 min 0.03 0.00
2022 Jan 08, 11:51 36.19925° -75.71436° 30 min 0.03 0.00
90°
2022 Jan 08, 11:21 36.19925° -75.71440° 30 min 0.03 0.00
313°
2022 Jan 08, 10:51 36.19924° -75.71439° 30 min 0.03 0.00
58°
2022 Jan 08, 10:21 36.19923° -75.71440° 30 min 0.03 0.00
238°
2022 Jan 08, 09:51 36.19924° -75.71439° 30 min 0.03 0.00
2022 Jan 08, 09:21 36.19924° -75.71439° 30 min 0.03 0.00
208°
2022 Jan 08, 08:51 36.19928° -75.71436° 30 min 0.03 0.00
58°
2022 Jan 08, 08:21 36.19926° -75.71439° 30 min 0.03 0.00
270°
2022 Jan 08, 07:51 36.19926° -75.71436° 30 min 0.03 0.00
90°
2022 Jan 08, 07:21 36.19926° -75.71439° 30 min 0.03 0.00
270°
2022 Jan 08, 06:51 36.19926° -75.71436° 30 min 0.03 0.00
2022 Jan 08, 06:21 36.19926° -75.71436° 30 min 0.03 0.00
110°
2022 Jan 08, 05:51 36.19928° -75.71440° 30 min 0.03 0.00
2022 Jan 08, 05:21 36.19928° -75.71440° 30 min 0.03 0.00
2022 Jan 08, 04:51 36.19928° -75.71440° 30 min 0.03 0.01
90°
2022 Jan 08, 04:21 36.19928° -75.71447° 30 min 0.03 0.00
2022 Jan 08, 03:51 36.19926° -75.71447° 30 min 0.03 0.00
122°
2022 Jan 08, 03:21 36.19928° -75.71449° 30 min 0.03 0.00
270°
2022 Jan 08, 02:51 36.19928° -75.71447° 30 min 0.03 0.00
253°
2022 Jan 08, 02:21 36.19929° -75.71442° 30 min 0.03 0.00
58°
2022 Jan 08, 01:51 36.19928° -75.71445° 30 min 0.03 0.00
90°
2022 Jan 08, 01:21 36.19928° -75.71447° 30 min 0.03 0.00
90°
2022 Jan 08, 00:51 36.19928° -75.71449° 30 min 0.03 0.00
270°
2022 Jan 08, 00:21 36.19928° -75.71447° 30 min 0.03 0.00
287°
2022 Jan 07, 23:51 36.19926° -75.71442° 30 min 0.03 0.00
90°
2022 Jan 07, 23:21 36.19926° -75.71447° 30 min 0.03 0.00
219°
2022 Jan 07, 22:51 36.19929° -75.71445° 30 min 0.03 0.00
58°
2022 Jan 07, 22:21 36.19928° -75.71447° 30 min 0.03 0.00
2022 Jan 07, 21:51 36.19928° -75.71447° 30 min 0.03 0.00
302°
2022 Jan 07, 21:21 36.19926° -75.71445° 30 min 0.03 0.01
230°
2022 Jan 07, 20:51 36.19930° -75.71440° 30 min 0.03 0.01
82°
2022 Jan 07, 20:21 36.19929° -75.71447° 30 min 0.03 0.00
104°
2022 Jan 07, 19:51 36.19930° -75.71451° 30 min 0.02 0.00
302°
2022 Jan 07, 19:21 36.19929° -75.71449° 30 min 0.03 0.00
2022 Jan 07, 18:51 36.19929° -75.71449° 30 min 0.03 0.00
258°
2022 Jan 07, 18:21 36.19930° -75.71445° 30 min 0.03 0.01
238°
2022 Jan 07, 17:51 36.19932° -75.71440° 30 min 0.02 0.00
180°
2022 Jan 07, 17:21 36.19933° -75.71440° 30 min 0.02 0.00
2022 Jan 07, 16:51 36.19933° -75.71440° 30 min 0.02 0.00
180°
2022 Jan 07, 16:21 36.19934° -75.71440° 30 min 0.02 0.00
2022 Jan 07, 15:51 36.19933° -75.71440° 30 min 0.02 0.00
180°
2022 Jan 07, 15:21 36.19936° -75.71440° 30 min 0.02 0.00
208°
2022 Jan 07, 14:51 36.19938° -75.71439° 30 min 0.02 0.00
270°
2022 Jan 07, 14:21 36.19938° -75.71436° 30 min 0.02 0.00
122°
2022 Jan 07, 13:51 36.19939° -75.71439° 30 min 0.02 0.00
270°
2022 Jan 07, 13:21 36.19939° -75.71436° 30 min 0.02 0.00
2022 Jan 07, 12:51 36.19938° -75.71436° 30 min 0.02 0.01
246°
2022 Jan 07, 12:21 36.19941° -75.71428° 30 min 0.02 0.00
253°
2022 Jan 07, 11:51 36.19942° -75.71423° 30 min 0.02 0.01
221°
2022 Jan 07, 11:21 36.19947° -75.71419° 30 min 0.02 0.01
186°
2022 Jan 07, 10:51 36.19958° -75.71417° 30 min 0.02 0.02
188°
2022 Jan 07, 10:21 36.19971° -75.71415° 30 min 0.02 0.01
164°
2022 Jan 07, 09:51 36.19982° -75.71419° 30 min 0.02 0.02
141°
2022 Jan 07, 09:21 36.19995° -75.71432° 30 min 0.02 0.00
107°
2022 Jan 07, 08:51 36.19996° -75.71436° 30 min 0.02 0.00
90°
2022 Jan 07, 08:21 36.19996° -75.71439° 30 min 0.02 0.00
180°
2022 Jan 07, 07:51 36.19998° -75.71439° 30 min 0.02 0.01
100°
2022 Jan 07, 07:21 36.19999° -75.71447° 30 min 0.02 0.00
58°
2022 Jan 07, 06:51 36.19998° -75.71449° 30 min 0.02 0.00
2022 Jan 07, 06:21 36.19997° -75.71449° 30 min 0.02 0.00
90°
2022 Jan 07, 05:51 36.19997° -75.71451° 30 min 0.02 0.01
78°
2022 Jan 07, 05:21 36.19996° -75.71458° 30 min 0.02 0.01
90°
2022 Jan 07, 04:51 36.19996° -75.71464° 30 min 0.02 0.00
2022 Jan 07, 04:21 36.19994° -75.71464° 30 min 0.01 0.00
122°
2022 Jan 07, 03:51 36.19995° -75.71466° 30 min 0.02 0.00
180°
2022 Jan 07, 03:21 36.19996° -75.71466° 30 min 0.02 0.00
238°
2022 Jan 07, 02:51 36.19997° -75.71464° 30 min 0.02 0.00
238°
2022 Jan 07, 02:21 36.19998° -75.71462° 30 min 0.02 0.00
180°
2022 Jan 07, 01:51 36.19999° -75.71462° 30 min 0.02 0.00
287°
2022 Jan 07, 01:21 36.19998° -75.71458° 30 min 0.02 0.00
208°
2022 Jan 07, 00:51 36.20002° -75.71455° 30 min 0.02 0.00
2022 Jan 07, 00:21 36.20000° -75.71455° 30 min 0.02 0.00
2022 Jan 06, 23:51 36.19998° -75.71455° 30 min 0.02 0.00
270°
2022 Jan 06, 23:21 36.19998° -75.71453° 30 min 0.02 0.00
180°
2022 Jan 06, 22:51 36.19999° -75.71453° 30 min 0.02 0.00
2022 Jan 06, 22:21 36.19999° -75.71453° 30 min 0.02 0.01
53°
2022 Jan 06, 21:51 36.19995° -75.71460° 30 min 0.02 0.00
58°
2022 Jan 06, 21:21 36.19994° -75.71462° 30 min 0.01 0.00
70°
2022 Jan 06, 20:51 36.19993° -75.71466° 30 min 0.01 0.00
219°
2022 Jan 06, 20:21 36.19995° -75.71464° 30 min 0.02 0.00
39°
2022 Jan 06, 19:51 36.19993° -75.71466° 30 min 0.01 0.00
31°
2022 Jan 06, 19:21 36.19990° -75.71468° 30 min 0.01 0.00
238°
2022 Jan 06, 18:51 36.19991° -75.71466° 30 min 0.01 0.00
58°
2022 Jan 06, 18:21 36.19990° -75.71468° 30 min 0.01 0.00
180°
2022 Jan 06, 17:51 36.19992° -75.71468° 30 min 0.01 0.01
58°
2022 Jan 06, 17:21 36.19990° -75.71473° 30 min 0.01 0.00
180°
2022 Jan 06, 16:51 36.19991° -75.71473° 30 min 0.01 0.01
13°
2022 Jan 06, 16:21 36.19986° -75.71474° 30 min 0.01 0.01
223°
2022 Jan 06, 15:51 36.19993° -75.71466° 30 min 0.01 0.00
208°
2022 Jan 06, 15:21 36.19996° -75.71464° 30 min 0.02 0.00
2022 Jan 06, 14:51 36.19996° -75.71464° 30 min 0.02 0.00
122°
2022 Jan 06, 14:21 36.19997° -75.71466° 30 min 0.02 0.00
248°
2022 Jan 06, 13:51 36.19998° -75.71464° 30 min 0.02 0.00
68°
2022 Jan 06, 13:21 36.19997° -75.71466° 30 min 0.02 0.00
73°
2022 Jan 06, 12:51 36.19996° -75.71471° 30 min 0.02 0.00
270°
2022 Jan 06, 12:21 36.19996° -75.71468° 30 min 0.02 0.00
287°
2022 Jan 06, 11:51 36.19995° -75.71464° 30 min 0.02 0.01
296°
2022 Jan 06, 11:21 36.19991° -75.71453° 30 min 0.01 0.01
270°
2022 Jan 06, 10:51 36.19991° -75.71447° 30 min 0.01 0.01
297°
2022 Jan 06, 10:21 36.19987° -75.71439° 30 min 0.01 0.00
297°
2022 Jan 06, 09:51 36.19986° -75.71434° 30 min 0.02 0.01
317°
2022 Jan 06, 09:21 36.19980° -75.71428° 30 min 0.02 0.01
302°
2022 Jan 06, 08:51 36.19976° -75.71419° 30 min 0.02 0.00
68°
2022 Jan 06, 08:21 36.19975° -75.71421° 30 min 0.02 0.00
307°
2022 Jan 06, 07:51 36.19973° -75.71417° 30 min 0.02 0.00
270°
2022 Jan 06, 07:21 36.19973° -75.71415° 30 min 0.02 0.01
341°
2022 Jan 06, 06:51 36.19967° -75.71413° 30 min 0.02 0.00
122°
2022 Jan 06, 06:21 36.19968° -75.71415° 30 min 0.02 0.00
2022 Jan 06, 05:51 36.19966° -75.71415° 30 min 0.02 0.00
2022 Jan 06, 05:21 36.19965° -75.71415° 30 min 0.02 0.00
2022 Jan 06, 04:51 36.19965° -75.71415° 30 min 0.02 0.00
58°
2022 Jan 06, 04:21 36.19963° -75.71419° 30 min 0.02 0.01
58°
2022 Jan 06, 03:51 36.19961° -75.71423° 30 min 0.02 0.01
48°
2022 Jan 06, 03:21 36.19953° -75.71434° 30 min 0.02 0.00
2022 Jan 06, 02:51 36.19951° -75.71434° 30 min 0.02 0.02
77°
2022 Jan 06, 02:21 36.19948° -75.71453° 30 min 0.01 0.01
74°
2022 Jan 06, 01:51 36.19945° -75.71466° 30 min 0.02 0.01
47°
2022 Jan 06, 01:21 36.19941° -75.71471° 30 min 0.02 0.01
90°
2022 Jan 06, 00:51 36.19941° -75.71477° 30 min 0.02 0.00
31°
2022 Jan 06, 00:21 36.19938° -75.71479° 30 min 0.02 0.00
302°
2022 Jan 05, 23:51 36.19937° -75.71477° 30 min 0.02 0.01
230°
2022 Jan 05, 23:21 36.19941° -75.71471° 30 min 0.02 0.00
253°
2022 Jan 05, 22:51 36.19942° -75.71466° 30 min 0.02 0.00
302°
2022 Jan 05, 22:21 36.19941° -75.71462° 30 min 0.02 0.01
302°
2022 Jan 05, 21:51 36.19938° -75.71458° 30 min 0.02 0.00
302°
2022 Jan 05, 21:21 36.19937° -75.71455° 30 min 0.02 0.00
270°
2022 Jan 05, 20:51 36.19937° -75.71453° 30 min 0.02 0.01
295°
2022 Jan 05, 20:21 36.19935° -75.71447° 30 min 0.02 0.00
282°
2022 Jan 05, 19:51 36.19934° -75.71442° 30 min 0.02 0.00
2022 Jan 05, 19:21 36.19931° -75.71442° 30 min 0.03 0.00
250°
2022 Jan 05, 18:51 36.19932° -75.71439° 30 min 0.03 0.00
152°
2022 Jan 05, 18:21 36.19934° -75.71440° 30 min 0.02 0.00
2022 Jan 05, 17:51 36.19934° -75.71440° 30 min 0.02 0.00
202°
2022 Jan 05, 17:21 36.19937° -75.71439° 30 min 0.02 0.00
180°
2022 Jan 05, 16:51 36.19939° -75.71439° 30 min 0.02 0.01
63°
2022 Jan 05, 16:21 36.19936° -75.71447° 30 min 0.02 0.00
90°
2022 Jan 05, 15:51 36.19936° -75.71449° 30 min 0.02 0.00
70°
2022 Jan 05, 15:21 36.19935° -75.71453° 30 min 0.02 0.01
82°
2022 Jan 05, 14:51 36.19934° -75.71460° 30 min 0.02 0.00
90°
2022 Jan 05, 14:21 36.19934° -75.71462° 30 min 0.02 0.00
47°
2022 Jan 05, 13:51 36.19933° -75.71464° 30 min 0.02 0.00
2022 Jan 05, 13:21 36.19932° -75.71464° 30 min 0.02 0.01
180°
2022 Jan 05, 12:51 36.19936° -75.71464° 30 min 0.02 0.00
180°
2022 Jan 05, 12:21 36.19939° -75.71464° 30 min 0.02 0.02
195°
2022 Jan 05, 11:51 36.19958° -75.71458° 30 min 0.01 0.00
112°
2022 Jan 05, 11:21 36.19958° -75.71460° 30 min 0.01 0.03
337°
2022 Jan 05, 10:51 36.19938° -75.71449° 30 min 0.02 0.00
270°
2022 Jan 05, 10:21 36.19938° -75.71445° 30 min 0.02 0.01
302°
2022 Jan 05, 09:51 36.19936° -75.71440° 30 min 0.02 0.00
313°
2022 Jan 05, 09:21 36.19935° -75.71439° 30 min 0.02 0.01
16°
2022 Jan 05, 08:51 36.19931° -75.71440° 30 min 0.03 0.01
235°
2022 Jan 05, 08:21 36.19934° -75.71434° 30 min 0.02 0.00
180°
2022 Jan 05, 07:51 36.19935° -75.71434° 30 min 0.02 0.00
270°
2022 Jan 05, 07:21 36.19935° -75.71429° 30 min 0.03 0.01
50°
2022 Jan 05, 06:51 36.19932° -75.71434° 30 min 0.03 0.00
90°
2022 Jan 05, 06:21 36.19932° -75.71436° 30 min 0.03 0.00
70°
2022 Jan 05, 05:51 36.19931° -75.71440° 30 min 0.03 0.00
2022 Jan 05, 05:21 36.19931° -75.71440° 30 min 0.03 0.00
270°
2022 Jan 05, 04:51 36.19931° -75.71436° 30 min 0.03 0.01
90°
2022 Jan 05, 04:21 36.19931° -75.71442° 30 min 0.03 0.00
90°
2022 Jan 05, 03:51 36.19931° -75.71445° 30 min 0.02 0.00
270°
2022 Jan 05, 03:21 36.19931° -75.71442° 30 min 0.03 0.00
302°
2022 Jan 05, 02:51 36.19930° -75.71440° 30 min 0.03 0.01
222°
2022 Jan 05, 02:21 36.19933° -75.71436° 30 min 0.03 0.00
122°
2022 Jan 05, 01:51 36.19934° -75.71439° 30 min 0.02 0.00
270°
2022 Jan 05, 01:21 36.19934° -75.71434° 30 min 0.02 0.00
2022 Jan 05, 00:51 36.19934° -75.71434° 30 min 0.02 0.01
39°
2022 Jan 05, 00:21 36.19930° -75.71439° 30 min 0.03 0.00
76°
2022 Jan 04, 23:51 36.19929° -75.71442° 30 min 0.03 0.00
248°
2022 Jan 04, 23:21 36.19930° -75.71440° 30 min 0.03 0.00
63°
2022 Jan 04, 22:51 36.19928° -75.71445° 30 min 0.03 0.00
58°
2022 Jan 04, 22:21 36.19926° -75.71447° 30 min 0.03 0.00
287°
2022 Jan 04, 21:51 36.19925° -75.71442° 30 min 0.03 0.00
90°
2022 Jan 04, 21:21 36.19925° -75.71445° 30 min 0.03 0.00
2022 Jan 04, 20:51 36.19924° -75.71445° 30 min 0.03 0.00
238°
2022 Jan 04, 20:21 36.19925° -75.71442° 30 min 0.03 0.00
58°
2022 Jan 04, 19:51 36.19924° -75.71445° 30 min 0.03 0.00
292°
2022 Jan 04, 19:21 36.19923° -75.71442° 30 min 0.03 0.00
180°
2022 Jan 04, 18:51 36.19924° -75.71442° 30 min 0.03 0.00
180°
2022 Jan 04, 18:21 36.19925° -75.71442° 30 min 0.03 0.00
58°
2022 Jan 04, 17:51 36.19924° -75.71445° 30 min 0.03 0.00
2022 Jan 04, 17:21 36.19923° -75.71445° 30 min 0.03 0.00
243°
2022 Jan 04, 16:51 36.19925° -75.71440° 30 min 0.03 0.00
180°
2022 Jan 04, 16:21 36.19928° -75.71440° 30 min 0.03 0.00
313°
2022 Jan 04, 15:51 36.19926° -75.71439° 30 min 0.03 0.00
28°
2022 Jan 04, 15:21 36.19924° -75.71440° 30 min 0.03 0.01
102°
2022 Jan 04, 14:51 36.19925° -75.71447° 30 min 0.03 0.00
302°
2022 Jan 04, 14:21 36.19924° -75.71445° 30 min 0.03 0.00
107°
2022 Jan 04, 13:51 36.19925° -75.71449° 30 min 0.03 0.00
270°
2022 Jan 04, 13:21 36.19925° -75.71445° 30 min 0.03 0.00
58°
2022 Jan 04, 12:51 36.19924° -75.71447° 30 min 0.03 0.00
292°
2022 Jan 04, 12:21 36.19923° -75.71445° 30 min 0.03 0.00
112°
2022 Jan 04, 11:51 36.19924° -75.71447° 30 min 0.03 0.00
2022 Jan 04, 11:21 36.19923° -75.71447° 30 min 0.03 0.00
2022 Jan 04, 10:51 36.19923° -75.71447° 30 min 0.03 0.00
112°
2022 Jan 04, 10:21 36.19924° -75.71449° 30 min 0.03 0.00
270°
2022 Jan 04, 09:51 36.19924° -75.71447° 30 min 0.03 0.00
2022 Jan 04, 09:21 36.19923° -75.71447° 30 min 0.03 0.00
2022 Jan 04, 08:51 36.19921° -75.71447° 30 min 0.03 0.00
180°
2022 Jan 04, 08:21 36.19922° -75.71447° 30 min 0.03 0.00
302°
2022 Jan 04, 07:51 36.19921° -75.71445° 30 min 0.03 0.00
2022 Jan 04, 07:21 36.19921° -75.71445° 30 min 0.03 0.00
219°
2022 Jan 04, 06:51 36.19923° -75.71442° 30 min 0.03 0.00
2022 Jan 04, 06:21 36.19922° -75.71442° 30 min 0.03 0.00
2022 Jan 04, 05:51 36.19922° -75.71442° 30 min 0.03 0.00
224°
2022 Jan 04, 05:21 36.19924° -75.71440° 30 min 0.03 0.00
2022 Jan 04, 04:51 36.19923° -75.71440° 30 min 0.03 0.00
2022 Jan 04, 04:21 36.19922° -75.71440° 30 min 0.03 0.00
180°
2022 Jan 04, 03:51 36.19923° -75.71440° 30 min 0.03 0.00
39°
2022 Jan 04, 03:21 36.19921° -75.71442° 30 min 0.03 0.00
238°
2022 Jan 04, 02:51 36.19922° -75.71440° 30 min 0.03 0.00
39°
2022 Jan 04, 02:21 36.19920° -75.71442° 30 min 0.03 0.00
238°
2022 Jan 04, 01:51 36.19921° -75.71440° 30 min 0.03 0.00
2022 Jan 04, 01:21 36.19921° -75.71440° 30 min 0.03 0.00
90°
2022 Jan 04, 00:51 36.19921° -75.71442° 30 min 0.03 0.00
39°
2022 Jan 04, 00:21 36.19919° -75.71445° 30 min 0.03 0.01
202°
2022 Jan 03, 23:51 36.19923° -75.71442° 30 min 0.03 0.00
39°
2022 Jan 03, 23:21 36.19921° -75.71445° 30 min 0.03 0.00
39°
2022 Jan 03, 22:51 36.19919° -75.71447° 30 min 0.03 0.00
253°
2022 Jan 03, 22:21 36.19920° -75.71442° 30 min 0.03 0.00
2022 Jan 03, 21:51 36.19920° -75.71442° 30 min 0.03 0.00
58°
2022 Jan 03, 21:21 36.19919° -75.71445° 30 min 0.03 0.00
282°
2022 Jan 03, 20:51 36.19918° -75.71440° 30 min 0.03 0.01
39°
2022 Jan 03, 20:21 36.19913° -75.71445° 30 min 0.03 0.01
283°
2022 Jan 03, 19:51 36.19912° -75.71439° 30 min 0.04 0.00
33°
2022 Jan 03, 19:21 36.19910° -75.71440° 30 min 0.04 0.01
180°
2022 Jan 03, 18:51 36.19916° -75.71440° 30 min 0.03 0.00
227°
2022 Jan 03, 18:21 36.19917° -75.71439° 30 min 0.03 0.00
47°
2022 Jan 03, 17:51 36.19916° -75.71440° 30 min 0.03 0.00
141°
2022 Jan 03, 17:21 36.19918° -75.71442° 30 min 0.03 0.00
180°
2022 Jan 03, 16:51 36.19919° -75.71442° 30 min 0.03 0.00
180°
2022 Jan 03, 16:21 36.19921° -75.71442° 30 min 0.03 0.00
2022 Jan 03, 15:51 36.19920° -75.71442° 30 min 0.03 0.00
219°
2022 Jan 03, 15:21 36.19922° -75.71440° 30 min 0.03 0.00
313°
2022 Jan 03, 14:51 36.19921° -75.71439° 30 min 0.03 0.01
103°
2022 Jan 03, 14:21 36.19923° -75.71451° 30 min 0.03 0.00
238°
2022 Jan 03, 13:51 36.19924° -75.71449° 30 min 0.03 0.00
152°
2022 Jan 03, 13:21 36.19926° -75.71451° 30 min 0.03 0.00
107°
2022 Jan 03, 12:51 36.19928° -75.71455° 30 min 0.03 0.02
111°
2022 Jan 03, 12:21 36.19933° -75.71473° 30 min 0.02 0.02
123°
2022 Jan 03, 11:51 36.19941° -75.71487° 30 min 0.02 0.00
180°
2022 Jan 03, 11:21 36.19941° -75.71487° 30 min 0.02 0.01
122°
2022 Jan 03, 10:51 36.19944° -75.71492° 30 min 0.02 0.01
295°
2022 Jan 03, 10:21 36.19941° -75.71486° 30 min 0.02 0.00
180°
2022 Jan 03, 09:51 36.19942° -75.71486° 30 min 0.02 0.00
238°
2022 Jan 03, 09:21 36.19944° -75.71484° 30 min 0.02 0.01
285°
2022 Jan 03, 08:51 36.19941° -75.71473° 30 min 0.02 0.00
238°
2022 Jan 03, 08:21 36.19942° -75.71471° 30 min 0.02 0.01
206°
2022 Jan 03, 07:51 36.19950° -75.71466° 30 min 0.01 0.01
180°
2022 Jan 03, 07:21 36.19958° -75.71466° 30 min 0.01 0.01
230°
2022 Jan 03, 06:51 36.19965° -75.71455° 30 min 0.00 0.01
291°
2022 Jan 03, 06:21 36.19963° -75.71449° 30 min 0.01 0.01
324°
2022 Jan 03, 05:51 36.19955° -75.71442° 30 min 0.01 0.00
233°
2022 Jan 03, 05:21 36.19958° -75.71439° 30 min 0.01 0.00
302°
2022 Jan 03, 04:51 36.19957° -75.71436° 30 min 0.01 0.00
270°
2022 Jan 03, 04:21 36.19957° -75.71434° 30 min 0.01 0.01
16°
2022 Jan 03, 03:51 36.19950° -75.71436° 30 min 0.02 0.01
180°
2022 Jan 03, 03:21 36.19954° -75.71436° 30 min 0.01 0.00
208°
2022 Jan 03, 02:51 36.19958° -75.71434° 30 min 0.01 0.00
2022 Jan 03, 02:21 36.19958° -75.71434° 30 min 0.01 0.01
111°
2022 Jan 03, 01:51 36.19960° -75.71440° 30 min 0.01 0.00
63°
2022 Jan 03, 01:21 36.19958° -75.71445° 30 min 0.01 0.01
161°
2022 Jan 03, 00:51 36.19968° -75.71449° 30 min 0.01 0.01
155°
2022 Jan 03, 00:21 36.19975° -75.71453° 30 min 0.00 0.00
39°
2022 Jan 02, 23:51 36.19973° -75.71455° 30 min 0.00 0.02
203°
2022 Jan 02, 23:21 36.19984° -75.71449° 30 min 0.01 0.01
122°
2022 Jan 02, 22:51 36.19991° -75.71462° 30 min 0.01 0.00
147°
2022 Jan 02, 22:21 36.19993° -75.71464° 30 min 0.01 0.00
78°
2022 Jan 02, 21:51 36.19992° -75.71468° 30 min 0.01 0.00
90°
2022 Jan 02, 21:21 36.19992° -75.71471° 30 min 0.01 0.01
270°
2022 Jan 02, 20:51 36.19992° -75.71464° 30 min 0.01 0.00
2022 Jan 02, 20:21 36.19992° -75.71464° 30 min 0.01 0.01
345°
2022 Jan 02, 19:51 36.19987° -75.71462° 30 min 0.01 0.01
245°
2022 Jan 02, 19:21 36.19991° -75.71453° 30 min 0.01 0.01
19°
2022 Jan 02, 18:51 36.19980° -75.71458° 30 min 0.01 0.01
280°
2022 Jan 02, 18:21 36.19979° -75.71449° 30 min 0.01 0.00
47°
2022 Jan 02, 17:51 36.19978° -75.71451° 30 min 0.01 0.00
290°
2022 Jan 02, 17:21 36.19977° -75.71447° 30 min 0.01 0.01
36°
2022 Jan 02, 16:51 36.19973° -75.71451° 30 min 0.00 0.00
180°
2022 Jan 02, 16:21 36.19975° -75.71451° 30 min 0.01 0.00
313°
2022 Jan 02, 15:51 36.19974° -75.71449° 30 min 0.01 0.00
270°
2022 Jan 02, 15:21 36.19974° -75.71447° 30 min 0.01 0.00
238°
2022 Jan 02, 14:51 36.19975° -75.71445° 30 min 0.01 0.01
161°
2022 Jan 02, 14:21 36.19980° -75.71447° 30 min 0.01 0.00
2022 Jan 02, 13:51 36.19980° -75.71447° 30 min 0.01 0.00
104°
2022 Jan 02, 13:21 36.19981° -75.71451° 30 min 0.01 0.00
141°
2022 Jan 02, 12:51 36.19983° -75.71453° 30 min 0.01 0.00
2022 Jan 02, 12:21 36.19983° -75.71453° 30 min 0.01 0.01
122°
2022 Jan 02, 11:51 36.19986° -75.71458° 30 min 0.01 0.00
2022 Jan 02, 11:21 36.19986° -75.71458° 30 min 0.01 0.00
136°
2022 Jan 02, 10:51 36.19987° -75.71460° 30 min 0.01 0.00
292°
2022 Jan 02, 10:21 36.19987° -75.71458° 30 min 0.01 0.00
90°
2022 Jan 02, 09:51 36.19987° -75.71462° 30 min 0.01 0.00
2022 Jan 02, 09:21 36.19984° -75.71462° 30 min 0.01 0.00
2022 Jan 02, 08:51 36.19984° -75.71462° 30 min 0.01 0.00
2022 Jan 02, 08:21 36.19983° -75.71462° 30 min 0.01 0.00
270°
2022 Jan 02, 07:51 36.19983° -75.71460° 30 min 0.01 0.00
180°
2022 Jan 02, 07:21 36.19984° -75.71460° 30 min 0.01 0.00
2022 Jan 02, 06:51 36.19983° -75.71460° 30 min 0.01 0.00
253°
2022 Jan 02, 06:21 36.19984° -75.71455° 30 min 0.01 0.00
90°
2022 Jan 02, 05:51 36.19984° -75.71458° 30 min 0.01 0.01
302°
2022 Jan 02, 05:21 36.19982° -75.71453° 30 min 0.01 0.00
290°
2022 Jan 02, 04:51 36.19981° -75.71449° 30 min 0.01 0.00
316°
2022 Jan 02, 04:21 36.19979° -75.71447° 30 min 0.01 0.00
302°
2022 Jan 02, 03:51 36.19978° -75.71445° 30 min 0.01 0.00
180°
2022 Jan 02, 03:21 36.19979° -75.71445° 30 min 0.01 0.00
302°
2022 Jan 02, 02:51 36.19978° -75.71442° 30 min 0.01 0.00
2022 Jan 02, 02:21 36.19976° -75.71442° 30 min 0.01 0.00
2022 Jan 02, 01:51 36.19976° -75.71442° 30 min 0.01 0.00
2022 Jan 02, 01:21 36.19975° -75.71442° 30 min 0.01 0.00
117°
2022 Jan 02, 00:51 36.19977° -75.71447° 30 min 0.01 0.00
2022 Jan 02, 00:21 36.19976° -75.71447° 30 min 0.01 0.00
238°
2022 Jan 01, 23:51 36.19977° -75.71445° 30 min 0.01 0.00
73°
2022 Jan 01, 23:21 36.19976° -75.71449° 30 min 0.01 0.00
180°
2022 Jan 01, 22:51 36.19977° -75.71449° 30 min 0.01 0.00
180°
2022 Jan 01, 22:21 36.19979° -75.71449° 30 min 0.01 0.00
2022 Jan 01, 21:51 36.19979° -75.71449° 30 min 0.01 0.00
47°
2022 Jan 01, 21:21 36.19978° -75.71451° 30 min 0.01 0.00
2022 Jan 01, 20:51 36.19976° -75.71451° 30 min 0.01 0.00
90°
2022 Jan 01, 20:21 36.19976° -75.71453° 30 min 0.00 0.00
250°
2022 Jan 01, 19:51 36.19977° -75.71449° 30 min 0.01 0.00
2022 Jan 01, 19:21 36.19974° -75.71449° 30 min 0.01 0.00
2022 Jan 01, 18:51 36.19970° -75.71449° 30 min 0.01 0.00
2022 Jan 01, 18:21 36.19970° -75.71449° 30 min 0.01 0.00
2022 Jan 01, 17:51 36.19969° -75.71449° 30 min 0.01 0.00
292°
2022 Jan 01, 17:21 36.19968° -75.71447° 30 min 0.01 0.00
2022 Jan 01, 16:51 36.19965° -75.71447° 30 min 0.01 0.00
2022 Jan 01, 16:21 36.19963° -75.71447° 30 min 0.01 0.00
2022 Jan 01, 15:51 36.19961° -75.71447° 30 min 0.01 0.00
90°
2022 Jan 01, 15:21 36.19961° -75.71449° 30 min 0.01 0.00
2022 Jan 01, 14:51 36.19960° -75.71449° 30 min 0.01 0.00
2022 Jan 01, 14:21 36.19960° -75.71449° 30 min 0.01 0.00
133°
2022 Jan 01, 13:51 36.19961° -75.71451° 30 min 0.01 0.00
180°
2022 Jan 01, 13:21 36.19962° -75.71451° 30 min 0.01 0.00
2022 Jan 01, 12:51 36.19960° -75.71451° 30 min 0.01 0.00
122°
2022 Jan 01, 12:21 36.19961° -75.71453° 30 min 0.01 0.00
238°
2022 Jan 01, 11:51 36.19962° -75.71451° 30 min 0.01 0.00
227°
2022 Jan 01, 11:21 36.19963° -75.71449° 30 min 0.01 0.00
28°
2022 Jan 01, 10:51 36.19961° -75.71451° 30 min 0.01 0.00
270°
2022 Jan 01, 10:21 36.19961° -75.71449° 30 min 0.01 0.00
180°
2022 Jan 01, 09:51 36.19963° -75.71449° 30 min 0.01 0.00
2022 Jan 01, 09:21 36.19963° -75.71449° 30 min 0.01 0.00
2022 Jan 01, 08:51 36.19963° -75.71449° 30 min 0.01 0.00
2022 Jan 01, 08:21 36.19962° -75.71449° 30 min 0.01 0.00
238°
2022 Jan 01, 07:51 36.19963° -75.71447° 30 min 0.01 0.00
2022 Jan 01, 07:21 36.19963° -75.71447° 30 min 0.01 0.00
180°
2022 Jan 01, 06:51 36.19964° -75.71447° 30 min 0.01 0.00
44°
2022 Jan 01, 06:21 36.19962° -75.71449° 30 min 0.01 0.00
2022 Jan 01, 05:51 36.19960° -75.71449° 30 min 0.01 0.00
2022 Jan 01, 05:21 36.19960° -75.71449° 30 min 0.01 0.00
2022 Jan 01, 04:51 36.19958° -75.71449° 30 min 0.01 0.00
2022 Jan 01, 04:21 36.19958° -75.71449° 30 min 0.01 0.00
90°
2022 Jan 01, 03:51 36.19958° -75.71451° 30 min 0.01 0.00
332°
2022 Jan 01, 03:21 36.19955° -75.71449° 30 min 0.01 0.00
180°
2022 Jan 01, 02:51 36.19958° -75.71449° 30 min 0.01 0.00
2022 Jan 01, 02:21 36.19957° -75.71449° 30 min 0.01 0.00
238°
2022 Jan 01, 01:51 36.19958° -75.71447° 30 min 0.01 0.00
58°
2022 Jan 01, 01:21 36.19957° -75.71449° 30 min 0.01 0.00
2022 Jan 01, 00:51 36.19957° -75.71449° 30 min 0.01 0.00
90°
2022 Jan 01, 00:21 36.19957° -75.71451° 30 min 0.01 0.00
2021 Dec 31, 23:51 36.19957° -75.71451° 30 min 0.01 0.00
2021 Dec 31, 23:21 36.19957° -75.71451° 30 min 0.01 0.00
122°
2021 Dec 31, 22:51 36.19958° -75.71453° 30 min 0.01 0.00
2021 Dec 31, 22:21 36.19958° -75.71453° 30 min 0.01 0.00
90°
2021 Dec 31, 21:51 36.19958° -75.71455° 30 min 0.01 0.00
243°
2021 Dec 31, 21:21 36.19960° -75.71451° 30 min 0.01 0.01
46°
2021 Dec 31, 20:51 36.19954° -75.71458° 30 min 0.01 0.00
122°
2021 Dec 31, 20:21 36.19955° -75.71460° 30 min 0.01 0.00
110°
2021 Dec 31, 19:51 36.19957° -75.71464° 30 min 0.01 0.00
270°
2021 Dec 31, 19:21 36.19957° -75.71460° 30 min 0.01 0.00
270°
2021 Dec 31, 18:51 36.19957° -75.71455° 30 min 0.01 0.00
90°
2021 Dec 31, 18:21 36.19957° -75.71458° 30 min 0.01 0.00
302°
2021 Dec 31, 17:51 36.19955° -75.71455° 30 min 0.01 0.00
2021 Dec 31, 17:21 36.19954° -75.71455° 30 min 0.01 0.00
2021 Dec 31, 16:51 36.19954° -75.71455° 30 min 0.01 0.00
270°
2021 Dec 31, 16:21 36.19954° -75.71453° 30 min 0.01 0.00
90°
2021 Dec 31, 15:51 36.19954° -75.71455° 30 min 0.01 0.00
270°
2021 Dec 31, 15:21 36.19954° -75.71453° 30 min 0.01 0.00
90°
2021 Dec 31, 14:51 36.19954° -75.71455° 30 min 0.01 0.00
270°
2021 Dec 31, 14:21 36.19954° -75.71453° 30 min 0.01 0.00
180°
2021 Dec 31, 13:51 36.19955° -75.71453° 30 min 0.01 0.00
270°
2021 Dec 31, 13:21 36.19955° -75.71451° 30 min 0.01 0.00
180°
2021 Dec 31, 12:51 36.19958° -75.71451° 30 min 0.01 0.00
180°
2021 Dec 31, 12:21 36.19960° -75.71451° 30 min 0.01 0.00
313°
2021 Dec 31, 11:51 36.19958° -75.71449° 30 min 0.01 0.00
152°
2021 Dec 31, 11:21 36.19961° -75.71451° 30 min 0.01 0.00
58°
2021 Dec 31, 10:51 36.19960° -75.71453° 30 min 0.01 0.00
2021 Dec 31, 10:21 36.19958° -75.71453° 30 min 0.01 0.00
180°
2021 Dec 31, 09:51 36.19958° -75.71453° 30 min 0.01 0.00
68°
2021 Dec 31, 09:21 36.19958° -75.71455° 30 min 0.01 0.00
90°
2021 Dec 31, 08:51 36.19958° -75.71458° 30 min 0.01 0.00
180°
2021 Dec 31, 08:21 36.19960° -75.71458° 30 min 0.01 0.00
302°
2021 Dec 31, 07:51 36.19958° -75.71455° 30 min 0.01 0.00
90°
2021 Dec 31, 07:21 36.19958° -75.71458° 30 min 0.01 0.00
90°
2021 Dec 31, 06:51 36.19958° -75.71460° 30 min 0.01 0.00
238°
2021 Dec 31, 06:21 36.19960° -75.71458° 30 min 0.01 0.00
58°
2021 Dec 31, 05:51 36.19958° -75.71460° 30 min 0.01 0.00
297°
2021 Dec 31, 05:21 36.19957° -75.71455° 30 min 0.01 0.00
180°
2021 Dec 31, 04:51 36.19958° -75.71455° 30 min 0.01 0.00
58°
2021 Dec 31, 04:21 36.19957° -75.71458° 30 min 0.01 0.00
180°
2021 Dec 31, 03:51 36.19958° -75.71458° 30 min 0.01 0.00
2021 Dec 31, 03:21 36.19957° -75.71458° 30 min 0.01 0.00
180°
2021 Dec 31, 02:51 36.19958° -75.71458° 30 min 0.01 0.00
321°
2021 Dec 31, 02:21 36.19955° -75.71455° 30 min 0.01 0.00
90°
2021 Dec 31, 01:51 36.19955° -75.71460° 30 min 0.01 0.00
219°
2021 Dec 31, 01:21 36.19958° -75.71458° 30 min 0.01 0.00
90°
2021 Dec 31, 00:51 36.19958° -75.71460° 30 min 0.01 0.00
2021 Dec 31, 00:21 36.19955° -75.71460° 30 min 0.01 0.00
238°
2021 Dec 30, 23:51 36.19957° -75.71458° 30 min 0.01 0.00
90°
2021 Dec 30, 23:21 36.19957° -75.71460° 30 min 0.01 0.00
2021 Dec 30, 22:51 36.19957° -75.71460° 30 min 0.01 0.00
2021 Dec 30, 22:21 36.19957° -75.71460° 30 min 0.01 0.00
238°
2021 Dec 30, 21:51 36.19958° -75.71458° 30 min 0.01 0.00
2021 Dec 30, 21:21 36.19955° -75.71458° 30 min 0.01 0.00
238°
2021 Dec 30, 20:51 36.19957° -75.71455° 30 min 0.01 0.00
2021 Dec 30, 20:21 36.19957° -75.71455° 30 min 0.01 0.00
58°
2021 Dec 30, 19:51 36.19955° -75.71458° 30 min 0.01 0.00
2021 Dec 30, 19:21 36.19955° -75.71458° 30 min 0.01 0.00
180°
2021 Dec 30, 18:51 36.19957° -75.71458° 30 min 0.01 0.00
2021 Dec 30, 18:21 36.19957° -75.71458° 30 min 0.01 0.00
302°
2021 Dec 30, 17:51 36.19955° -75.71455° 30 min 0.01 0.00
90°
2021 Dec 30, 17:21 36.19955° -75.71458° 30 min 0.01 0.00
180°
2021 Dec 30, 16:51 36.19957° -75.71458° 30 min 0.01 0.00
270°
2021 Dec 30, 16:21 36.19957° -75.71455° 30 min 0.01 0.00
238°
2021 Dec 30, 15:51 36.19958° -75.71453° 30 min 0.01 0.00
2021 Dec 30, 15:21 36.19958° -75.71453° 30 min 0.01 0.00
2021 Dec 30, 14:51 36.19958° -75.71453° 30 min 0.01 0.00
2021 Dec 30, 14:21 36.19957° -75.71453° 30 min 0.01 0.00
2021 Dec 30, 13:51 36.19955° -75.71453° 30 min 0.01 0.00
180°
2021 Dec 30, 13:21 36.19957° -75.71453° 30 min 0.01 0.00
180°
2021 Dec 30, 12:51 36.19958° -75.71453° 30 min 0.01 0.00
122°
2021 Dec 30, 12:21 36.19960° -75.71455° 30 min 0.01 0.00
302°
2021 Dec 30, 11:51 36.19958° -75.71453° 30 min 0.01 0.01
214°
2021 Dec 30, 11:21 36.19963° -75.71449° 30 min 0.01 0.00
47°
2021 Dec 30, 10:51 36.19962°